sensor_id;sensor_type;location;lat;lon;timestamp;P1;durP1;ratioP1;P2;durP2;ratioP2
12306;SDS011;6216;51.146;7.008;2024-01-16T00:01:29;8.63;;;6.80;;
12306;SDS011;6216;51.146;7.008;2024-01-16T00:03:57;9.00;;;6.60;;
12306;SDS011;6216;51.146;7.008;2024-01-16T00:06:25;10.30;;;5.97;;
12306;SDS011;6216;51.146;7.008;2024-01-16T00:08:53;7.30;;;5.60;;
12306;SDS011;6216;51.146;7.008;2024-01-16T00:11:22;8.23;;;6.82;;
12306;SDS011;6216;51.146;7.008;2024-01-16T00:13:49;6.57;;;5.65;;
12306;SDS011;6216;51.146;7.008;2024-01-16T00:16:20;6.55;;;5.93;;
12306;SDS011;6216;51.146;7.008;2024-01-16T00:18:47;6.90;;;5.47;;
12306;SDS011;6216;51.146;7.008;2024-01-16T00:21:15;5.95;;;5.45;;
12306;SDS011;6216;51.146;7.008;2024-01-16T00:23:43;9.05;;;6.10;;
12306;SDS011;6216;51.146;7.008;2024-01-16T00:26:19;8.68;;;6.00;;
12306;SDS011;6216;51.146;7.008;2024-01-16T00:28:47;8.23;;;5.75;;
12306;SDS011;6216;51.146;7.008;2024-01-16T00:31:15;9.25;;;6.18;;
12306;SDS011;6216;51.146;7.008;2024-01-16T00:33:44;10.65;;;6.00;;
12306;SDS011;6216;51.146;7.008;2024-01-16T00:36:12;5.55;;;5.05;;
12306;SDS011;6216;51.146;7.008;2024-01-16T00:38:41;6.63;;;5.63;;
12306;SDS011;6216;51.146;7.008;2024-01-16T00:41:09;9.90;;;5.45;;
12306;SDS011;6216;51.146;7.008;2024-01-16T00:43:37;9.70;;;5.78;;
12306;SDS011;6216;51.146;7.008;2024-01-16T00:46:05;9.32;;;5.72;;
12306;SDS011;6216;51.146;7.008;2024-01-16T00:48:32;6.63;;;5.35;;
12306;SDS011;6216;51.146;7.008;2024-01-16T00:51:02;6.25;;;5.28;;
12306;SDS011;6216;51.146;7.008;2024-01-16T00:53:30;9.02;;;5.78;;
12306;SDS011;6216;51.146;7.008;2024-01-16T00:55:58;7.88;;;6.50;;
12306;SDS011;6216;51.146;7.008;2024-01-16T00:58:26;7.78;;;6.13;;
12306;SDS011;6216;51.146;7.008;2024-01-16T01:00:54;8.65;;;5.80;;
12306;SDS011;6216;51.146;7.008;2024-01-16T01:03:22;12.40;;;7.18;;
12306;SDS011;6216;51.146;7.008;2024-01-16T01:05:49;10.45;;;7.03;;
12306;SDS011;6216;51.146;7.008;2024-01-16T01:08:19;10.82;;;7.47;;
12306;SDS011;6216;51.146;7.008;2024-01-16T01:10:47;12.50;;;7.40;;
12306;SDS011;6216;51.146;7.008;2024-01-16T01:13:15;8.38;;;7.53;;
12306;SDS011;6216;51.146;7.008;2024-01-16T01:15:43;12.50;;;8.23;;
12306;SDS011;6216;51.146;7.008;2024-01-16T01:18:11;14.10;;;8.63;;
12306;SDS011;6216;51.146;7.008;2024-01-16T01:20:39;10.95;;;8.07;;
12306;SDS011;6216;51.146;7.008;2024-01-16T01:23:07;11.00;;;9.15;;
12306;SDS011;6216;51.146;7.008;2024-01-16T01:25:37;16.98;;;9.45;;
12306;SDS011;6216;51.146;7.008;2024-01-16T01:28:05;12.68;;;9.68;;
12306;SDS011;6216;51.146;7.008;2024-01-16T01:30:33;13.05;;;9.40;;
12306;SDS011;6216;51.146;7.008;2024-01-16T01:33:01;15.85;;;9.80;;
12306;SDS011;6216;51.146;7.008;2024-01-16T01:35:29;10.73;;;9.63;;
12306;SDS011;6216;51.146;7.008;2024-01-16T01:37:57;13.60;;;9.40;;
12306;SDS011;6216;51.146;7.008;2024-01-16T01:40:25;16.52;;;10.27;;
12306;SDS011;6216;51.146;7.008;2024-01-16T01:42:54;15.50;;;10.52;;
12306;SDS011;6216;51.146;7.008;2024-01-16T01:45:22;15.48;;;10.10;;
12306;SDS011;6216;51.146;7.008;2024-01-16T01:47:49;16.67;;;10.68;;
12306;SDS011;6216;51.146;7.008;2024-01-16T01:50:18;16.73;;;10.63;;
12306;SDS011;6216;51.146;7.008;2024-01-16T01:52:46;12.57;;;9.73;;
12306;SDS011;6216;51.146;7.008;2024-01-16T01:55:14;12.75;;;8.88;;
12306;SDS011;6216;51.146;7.008;2024-01-16T01:57:43;11.77;;;8.70;;
12306;SDS011;6216;51.146;7.008;2024-01-16T02:00:13;11.25;;;8.65;;
12306;SDS011;6216;51.146;7.008;2024-01-16T02:02:43;13.50;;;8.63;;
12306;SDS011;6216;51.146;7.008;2024-01-16T02:05:13;11.45;;;7.82;;
12306;SDS011;6216;51.146;7.008;2024-01-16T02:07:41;14.48;;;8.50;;
12306;SDS011;6216;51.146;7.008;2024-01-16T02:10:09;14.73;;;8.38;;
12306;SDS011;6216;51.146;7.008;2024-01-16T02:12:37;15.13;;;7.38;;
12306;SDS011;6216;51.146;7.008;2024-01-16T02:15:05;12.00;;;8.32;;
12306;SDS011;6216;51.146;7.008;2024-01-16T02:17:35;11.50;;;8.20;;
12306;SDS011;6216;51.146;7.008;2024-01-16T02:20:04;9.73;;;7.57;;
12306;SDS011;6216;51.146;7.008;2024-01-16T02:22:33;11.57;;;7.78;;
12306;SDS011;6216;51.146;7.008;2024-01-16T02:25:06;8.30;;;7.45;;
12306;SDS011;6216;51.146;7.008;2024-01-16T02:27:34;10.40;;;8.05;;
12306;SDS011;6216;51.146;7.008;2024-01-16T02:30:03;13.55;;;7.80;;
12306;SDS011;6216;51.146;7.008;2024-01-16T02:32:32;14.57;;;8.52;;
12306;SDS011;6216;51.146;7.008;2024-01-16T02:35:00;11.55;;;8.75;;
12306;SDS011;6216;51.146;7.008;2024-01-16T02:37:28;12.07;;;8.60;;
12306;SDS011;6216;51.146;7.008;2024-01-16T02:39:56;14.93;;;9.13;;
12306;SDS011;6216;51.146;7.008;2024-01-16T02:42:25;16.63;;;8.63;;
12306;SDS011;6216;51.146;7.008;2024-01-16T02:44:53;16.55;;;8.93;;
12306;SDS011;6216;51.146;7.008;2024-01-16T02:47:21;18.65;;;8.70;;
12306;SDS011;6216;51.146;7.008;2024-01-16T02:49:49;12.77;;;8.70;;
12306;SDS011;6216;51.146;7.008;2024-01-16T02:52:17;12.38;;;8.60;;
12306;SDS011;6216;51.146;7.008;2024-01-16T02:54:45;11.27;;;8.45;;
12306;SDS011;6216;51.146;7.008;2024-01-16T02:57:13;9.57;;;7.88;;
12306;SDS011;6216;51.146;7.008;2024-01-16T02:59:44;12.57;;;8.85;;
12306;SDS011;6216;51.146;7.008;2024-01-16T03:02:12;11.18;;;8.80;;
12306;SDS011;6216;51.146;7.008;2024-01-16T03:04:40;10.15;;;8.48;;
12306;SDS011;6216;51.146;7.008;2024-01-16T03:07:08;14.43;;;8.43;;
12306;SDS011;6216;51.146;7.008;2024-01-16T03:09:36;10.68;;;8.10;;
12306;SDS011;6216;51.146;7.008;2024-01-16T03:12:05;13.00;;;7.45;;
12306;SDS011;6216;51.146;7.008;2024-01-16T03:14:33;11.70;;;8.32;;
12306;SDS011;6216;51.146;7.008;2024-01-16T03:17:04;10.60;;;7.30;;
12306;SDS011;6216;51.146;7.008;2024-01-16T03:19:33;11.05;;;8.48;;
12306;SDS011;6216;51.146;7.008;2024-01-16T03:22:01;12.13;;;8.15;;
12306;SDS011;6216;51.146;7.008;2024-01-16T03:24:29;16.25;;;8.27;;
12306;SDS011;6216;51.146;7.008;2024-01-16T03:26:57;11.60;;;7.85;;
12306;SDS011;6216;51.146;7.008;2024-01-16T03:29:25;12.20;;;7.60;;
12306;SDS011;6216;51.146;7.008;2024-01-16T03:31:53;11.73;;;7.75;;
12306;SDS011;6216;51.146;7.008;2024-01-16T03:34:22;13.23;;;8.50;;
12306;SDS011;6216;51.146;7.008;2024-01-16T03:36:50;9.82;;;7.68;;
12306;SDS011;6216;51.146;7.008;2024-01-16T03:39:18;15.27;;;7.95;;
12306;SDS011;6216;51.146;7.008;2024-01-16T03:41:46;13.30;;;7.53;;
12306;SDS011;6216;51.146;7.008;2024-01-16T03:44:14;12.27;;;7.68;;
12306;SDS011;6216;51.146;7.008;2024-01-16T03:46:42;12.38;;;7.45;;
12306;SDS011;6216;51.146;7.008;2024-01-16T03:49:10;12.13;;;7.93;;
12306;SDS011;6216;51.146;7.008;2024-01-16T03:51:39;10.77;;;6.90;;
12306;SDS011;6216;51.146;7.008;2024-01-16T03:54:09;11.82;;;7.55;;
12306;SDS011;6216;51.146;7.008;2024-01-16T03:56:36;12.07;;;7.22;;
12306;SDS011;6216;51.146;7.008;2024-01-16T03:59:04;10.95;;;8.10;;
12306;SDS011;6216;51.146;7.008;2024-01-16T04:01:33;11.10;;;7.50;;
12306;SDS011;6216;51.146;7.008;2024-01-16T04:04:03;12.25;;;7.53;;
12306;SDS011;6216;51.146;7.008;2024-01-16T04:06:32;12.35;;;6.65;;
12306;SDS011;6216;51.146;7.008;2024-01-16T04:09:02;10.52;;;7.03;;
12306;SDS011;6216;51.146;7.008;2024-01-16T04:11:30;8.90;;;6.50;;
12306;SDS011;6216;51.146;7.008;2024-01-16T04:13:58;8.48;;;6.75;;
12306;SDS011;6216;51.146;7.008;2024-01-16T04:16:26;11.18;;;7.20;;
12306;SDS011;6216;51.146;7.008;2024-01-16T04:18:54;11.60;;;6.50;;
12306;SDS011;6216;51.146;7.008;2024-01-16T04:21:22;7.47;;;6.50;;
12306;SDS011;6216;51.146;7.008;2024-01-16T04:23:50;9.25;;;6.40;;
12306;SDS011;6216;51.146;7.008;2024-01-16T04:26:20;7.13;;;6.43;;
12306;SDS011;6216;51.146;7.008;2024-01-16T04:28:48;7.97;;;6.53;;
12306;SDS011;6216;51.146;7.008;2024-01-16T04:31:15;9.20;;;5.90;;
12306;SDS011;6216;51.146;7.008;2024-01-16T04:33:45;6.82;;;5.60;;
12306;SDS011;6216;51.146;7.008;2024-01-16T04:36:13;10.52;;;6.55;;
12306;SDS011;6216;51.146;7.008;2024-01-16T04:38:41;7.25;;;5.82;;
12306;SDS011;6216;51.146;7.008;2024-01-16T04:41:09;7.22;;;6.03;;
12306;SDS011;6216;51.146;7.008;2024-01-16T04:43:38;8.45;;;6.15;;
12306;SDS011;6216;51.146;7.008;2024-01-16T04:46:07;10.20;;;5.45;;
12306;SDS011;6216;51.146;7.008;2024-01-16T04:48:35;6.68;;;5.68;;
12306;SDS011;6216;51.146;7.008;2024-01-16T04:51:03;8.32;;;5.50;;
12306;SDS011;6216;51.146;7.008;2024-01-16T04:53:31;8.65;;;5.45;;
12306;SDS011;6216;51.146;7.008;2024-01-16T04:55:59;7.07;;;5.88;;
12306;SDS011;6216;51.146;7.008;2024-01-16T04:58:27;7.57;;;5.70;;
12306;SDS011;6216;51.146;7.008;2024-01-16T05:00:56;6.80;;;5.65;;
12306;SDS011;6216;51.146;7.008;2024-01-16T05:03:24;8.40;;;5.88;;
12306;SDS011;6216;51.146;7.008;2024-01-16T05:05:52;11.55;;;6.43;;
12306;SDS011;6216;51.146;7.008;2024-01-16T05:08:22;11.88;;;6.75;;
12306;SDS011;6216;51.146;7.008;2024-01-16T05:10:50;7.85;;;6.40;;
12306;SDS011;6216;51.146;7.008;2024-01-16T05:13:18;13.05;;;7.07;;
12306;SDS011;6216;51.146;7.008;2024-01-16T05:15:46;11.13;;;6.97;;
12306;SDS011;6216;51.146;7.008;2024-01-16T05:18:16;10.82;;;7.45;;
12306;SDS011;6216;51.146;7.008;2024-01-16T05:20:44;10.90;;;6.80;;
12306;SDS011;6216;51.146;7.008;2024-01-16T05:23:13;11.18;;;7.35;;
12306;SDS011;6216;51.146;7.008;2024-01-16T05:25:41;11.02;;;6.68;;
12306;SDS011;6216;51.146;7.008;2024-01-16T05:28:09;8.98;;;6.53;;
12306;SDS011;6216;51.146;7.008;2024-01-16T05:30:37;10.75;;;7.38;;
12306;SDS011;6216;51.146;7.008;2024-01-16T05:33:05;15.23;;;7.15;;
12306;SDS011;6216;51.146;7.008;2024-01-16T05:35:35;12.88;;;6.93;;
12306;SDS011;6216;51.146;7.008;2024-01-16T05:38:03;11.98;;;6.20;;
12306;SDS011;6216;51.146;7.008;2024-01-16T05:40:33;9.45;;;6.43;;
12306;SDS011;6216;51.146;7.008;2024-01-16T05:43:00;15.48;;;7.10;;
12306;SDS011;6216;51.146;7.008;2024-01-16T05:45:28;11.65;;;6.72;;
12306;SDS011;6216;51.146;7.008;2024-01-16T05:47:56;9.13;;;6.88;;
12306;SDS011;6216;51.146;7.008;2024-01-16T05:50:24;13.60;;;7.50;;
12306;SDS011;6216;51.146;7.008;2024-01-16T05:52:54;12.90;;;6.53;;
12306;SDS011;6216;51.146;7.008;2024-01-16T05:55:22;12.90;;;6.68;;
12306;SDS011;6216;51.146;7.008;2024-01-16T05:57:50;13.48;;;6.00;;
12306;SDS011;6216;51.146;7.008;2024-01-16T06:00:18;20.98;;;6.78;;
12306;SDS011;6216;51.146;7.008;2024-01-16T06:02:49;11.05;;;5.80;;
12306;SDS011;6216;51.146;7.008;2024-01-16T06:05:17;8.52;;;5.35;;
12306;SDS011;6216;51.146;7.008;2024-01-16T06:07:46;15.40;;;5.28;;
12306;SDS011;6216;51.146;7.008;2024-01-16T06:10:15;13.10;;;5.10;;
12306;SDS011;6216;51.146;7.008;2024-01-16T06:12:43;12.60;;;5.88;;
12306;SDS011;6216;51.146;7.008;2024-01-16T06:15:11;8.85;;;5.30;;
12306;SDS011;6216;51.146;7.008;2024-01-16T06:17:39;14.30;;;4.90;;
12306;SDS011;6216;51.146;7.008;2024-01-16T06:20:08;14.23;;;5.35;;
12306;SDS011;6216;51.146;7.008;2024-01-16T06:22:37;13.25;;;5.55;;
12306;SDS011;6216;51.146;7.008;2024-01-16T06:25:05;11.13;;;4.82;;
12306;SDS011;6216;51.146;7.008;2024-01-16T06:27:34;8.38;;;4.88;;
12306;SDS011;6216;51.146;7.008;2024-01-16T06:30:03;12.68;;;4.35;;
12306;SDS011;6216;51.146;7.008;2024-01-16T06:32:31;10.55;;;4.72;;
12306;SDS011;6216;51.146;7.008;2024-01-16T06:34:59;13.65;;;5.05;;
12306;SDS011;6216;51.146;7.008;2024-01-16T06:37:27;8.15;;;4.30;;
12306;SDS011;6216;51.146;7.008;2024-01-16T06:39:55;8.50;;;4.45;;
12306;SDS011;6216;51.146;7.008;2024-01-16T06:42:23;7.80;;;4.03;;
12306;SDS011;6216;51.146;7.008;2024-01-16T06:44:52;11.98;;;4.28;;
12306;SDS011;6216;51.146;7.008;2024-01-16T06:47:20;13.23;;;4.82;;
12306;SDS011;6216;51.146;7.008;2024-01-16T06:49:49;9.10;;;3.83;;
12306;SDS011;6216;51.146;7.008;2024-01-16T06:52:17;11.23;;;4.30;;
12306;SDS011;6216;51.146;7.008;2024-01-16T06:54:46;14.85;;;4.25;;
12306;SDS011;6216;51.146;7.008;2024-01-16T06:57:14;13.68;;;4.18;;
12306;SDS011;6216;51.146;7.008;2024-01-16T06:59:42;11.73;;;4.50;;
12306;SDS011;6216;51.146;7.008;2024-01-16T07:02:11;9.65;;;4.22;;
12306;SDS011;6216;51.146;7.008;2024-01-16T07:04:39;7.65;;;4.20;;
12306;SDS011;6216;51.146;7.008;2024-01-16T07:07:07;13.00;;;3.80;;
12306;SDS011;6216;51.146;7.008;2024-01-16T07:09:35;11.55;;;4.50;;
12306;SDS011;6216;51.146;7.008;2024-01-16T07:12:03;11.15;;;4.07;;
12306;SDS011;6216;51.146;7.008;2024-01-16T07:14:32;13.23;;;4.03;;
12306;SDS011;6216;51.146;7.008;2024-01-16T07:17:00;8.65;;;3.85;;
12306;SDS011;6216;51.146;7.008;2024-01-16T07:19:29;8.68;;;3.50;;
12306;SDS011;6216;51.146;7.008;2024-01-16T07:21:57;12.18;;;4.10;;
12306;SDS011;6216;51.146;7.008;2024-01-16T07:24:25;5.75;;;3.50;;
12306;SDS011;6216;51.146;7.008;2024-01-16T07:26:53;8.57;;;3.58;;
12306;SDS011;6216;51.146;7.008;2024-01-16T07:29:21;11.27;;;3.95;;
12306;SDS011;6216;51.146;7.008;2024-01-16T07:31:49;7.40;;;3.38;;
12306;SDS011;6216;51.146;7.008;2024-01-16T07:34:18;6.45;;;3.03;;
12306;SDS011;6216;51.146;7.008;2024-01-16T07:36:49;8.23;;;3.30;;
12306;SDS011;6216;51.146;7.008;2024-01-16T07:39:17;8.70;;;3.05;;
12306;SDS011;6216;51.146;7.008;2024-01-16T07:41:45;6.53;;;3.13;;
12306;SDS011;6216;51.146;7.008;2024-01-16T07:44:13;9.27;;;3.50;;
12306;SDS011;6216;51.146;7.008;2024-01-16T07:46:41;7.88;;;2.92;;
12306;SDS011;6216;51.146;7.008;2024-01-16T07:49:09;10.35;;;2.80;;
12306;SDS011;6216;51.146;7.008;2024-01-16T07:51:37;3.90;;;2.35;;
12306;SDS011;6216;51.146;7.008;2024-01-16T07:54:07;6.82;;;3.33;;
12306;SDS011;6216;51.146;7.008;2024-01-16T07:56:36;7.40;;;2.88;;
12306;SDS011;6216;51.146;7.008;2024-01-16T07:59:05;6.93;;;2.58;;
12306;SDS011;6216;51.146;7.008;2024-01-16T08:01:33;15.80;;;2.75;;
12306;SDS011;6216;51.146;7.008;2024-01-16T08:04:01;8.13;;;2.47;;
12306;SDS011;6216;51.146;7.008;2024-01-16T08:06:30;7.07;;;2.45;;
12306;SDS011;6216;51.146;7.008;2024-01-16T08:08:58;12.73;;;3.40;;
12306;SDS011;6216;51.146;7.008;2024-01-16T08:11:28;5.25;;;2.42;;
12306;SDS011;6216;51.146;7.008;2024-01-16T08:13:57;7.97;;;2.72;;
12306;SDS011;6216;51.146;7.008;2024-01-16T08:16:25;9.70;;;2.30;;
12306;SDS011;6216;51.146;7.008;2024-01-16T08:18:53;8.90;;;2.80;;
12306;SDS011;6216;51.146;7.008;2024-01-16T08:21:21;6.38;;;2.72;;
12306;SDS011;6216;51.146;7.008;2024-01-16T08:23:49;4.95;;;2.58;;
12306;SDS011;6216;51.146;7.008;2024-01-16T08:26:17;7.35;;;2.75;;
12306;SDS011;6216;51.146;7.008;2024-01-16T08:28:46;8.60;;;3.05;;
12306;SDS011;6216;51.146;7.008;2024-01-16T08:31:16;9.82;;;2.78;;
12306;SDS011;6216;51.146;7.008;2024-01-16T08:33:44;7.72;;;3.20;;
12306;SDS011;6216;51.146;7.008;2024-01-16T08:36:17;7.97;;;2.75;;
12306;SDS011;6216;51.146;7.008;2024-01-16T08:38:45;9.88;;;3.67;;
12306;SDS011;6216;51.146;7.008;2024-01-16T08:41:13;6.65;;;3.25;;
12306;SDS011;6216;51.146;7.008;2024-01-16T08:43:41;8.57;;;2.85;;
12306;SDS011;6216;51.146;7.008;2024-01-16T08:46:10;5.53;;;2.83;;
12306;SDS011;6216;51.146;7.008;2024-01-16T08:48:38;8.05;;;3.25;;
12306;SDS011;6216;51.146;7.008;2024-01-16T08:51:08;5.63;;;2.45;;
12306;SDS011;6216;51.146;7.008;2024-01-16T08:53:40;7.75;;;2.65;;
12306;SDS011;6216;51.146;7.008;2024-01-16T08:56:08;5.90;;;3.05;;
12306;SDS011;6216;51.146;7.008;2024-01-16T08:58:38;9.25;;;3.05;;
12306;SDS011;6216;51.146;7.008;2024-01-16T09:01:06;5.70;;;2.70;;
12306;SDS011;6216;51.146;7.008;2024-01-16T09:03:37;9.30;;;2.35;;
12306;SDS011;6216;51.146;7.008;2024-01-16T09:06:05;7.22;;;2.95;;
12306;SDS011;6216;51.146;7.008;2024-01-16T09:08:35;9.02;;;2.85;;
12306;SDS011;6216;51.146;7.008;2024-01-16T09:11:03;8.65;;;2.80;;
12306;SDS011;6216;51.146;7.008;2024-01-16T09:13:31;7.32;;;2.45;;
12306;SDS011;6216;51.146;7.008;2024-01-16T09:15:59;7.57;;;2.38;;
12306;SDS011;6216;51.146;7.008;2024-01-16T09:18:27;9.25;;;3.25;;
12306;SDS011;6216;51.146;7.008;2024-01-16T09:20:57;9.15;;;2.53;;
12306;SDS011;6216;51.146;7.008;2024-01-16T09:23:25;8.13;;;2.95;;
12306;SDS011;6216;51.146;7.008;2024-01-16T09:25:53;4.28;;;2.28;;
12306;SDS011;6216;51.146;7.008;2024-01-16T09:28:21;4.15;;;2.08;;
12306;SDS011;6216;51.146;7.008;2024-01-16T09:30:49;5.95;;;2.30;;
12306;SDS011;6216;51.146;7.008;2024-01-16T09:33:17;7.45;;;2.70;;
12306;SDS011;6216;51.146;7.008;2024-01-16T09:35:45;10.82;;;2.15;;
12306;SDS011;6216;51.146;7.008;2024-01-16T09:38:15;8.65;;;2.80;;
12306;SDS011;6216;51.146;7.008;2024-01-16T09:40:43;6.80;;;2.65;;
12306;SDS011;6216;51.146;7.008;2024-01-16T09:43:12;8.55;;;2.85;;
12306;SDS011;6216;51.146;7.008;2024-01-16T09:45:40;12.27;;;2.53;;
12306;SDS011;6216;51.146;7.008;2024-01-16T09:48:08;5.03;;;2.53;;
12306;SDS011;6216;51.146;7.008;2024-01-16T09:50:37;8.38;;;2.83;;
12306;SDS011;6216;51.146;7.008;2024-01-16T09:53:06;7.53;;;2.55;;
12306;SDS011;6216;51.146;7.008;2024-01-16T09:55:35;6.15;;;2.38;;
12306;SDS011;6216;51.146;7.008;2024-01-16T09:58:03;7.20;;;2.45;;
12306;SDS011;6216;51.146;7.008;2024-01-16T10:00:34;9.13;;;2.75;;
12306;SDS011;6216;51.146;7.008;2024-01-16T10:03:03;5.38;;;2.40;;
12306;SDS011;6216;51.146;7.008;2024-01-16T10:05:32;6.43;;;2.20;;
12306;SDS011;6216;51.146;7.008;2024-01-16T10:08:00;10.30;;;3.13;;
12306;SDS011;6216;51.146;7.008;2024-01-16T10:10:29;7.35;;;2.38;;
12306;SDS011;6216;51.146;7.008;2024-01-16T10:13:13;7.18;;;2.97;;
12306;SDS011;6216;51.146;7.008;2024-01-16T10:15:42;8.57;;;2.78;;
12306;SDS011;6216;51.146;7.008;2024-01-16T10:18:21;4.43;;;2.20;;
12306;SDS011;6216;51.146;7.008;2024-01-16T10:20:51;6.13;;;2.47;;
12306;SDS011;6216;51.146;7.008;2024-01-16T10:23:23;6.90;;;2.67;;
12306;SDS011;6216;51.146;7.008;2024-01-16T10:26:07;6.13;;;2.63;;
12306;SDS011;6216;51.146;7.008;2024-01-16T10:28:37;5.93;;;2.63;;
12306;SDS011;6216;51.146;7.008;2024-01-16T10:31:07;6.82;;;2.47;;
12306;SDS011;6216;51.146;7.008;2024-01-16T10:33:36;4.65;;;2.60;;
12306;SDS011;6216;51.146;7.008;2024-01-16T10:36:08;7.00;;;2.45;;
12306;SDS011;6216;51.146;7.008;2024-01-16T10:38:38;5.53;;;3.10;;
12306;SDS011;6216;51.146;7.008;2024-01-16T10:41:06;8.35;;;2.65;;
12306;SDS011;6216;51.146;7.008;2024-01-16T10:43:38;5.80;;;2.47;;
12306;SDS011;6216;51.146;7.008;2024-01-16T10:46:06;6.55;;;2.72;;
12306;SDS011;6216;51.146;7.008;2024-01-16T10:48:35;4.88;;;2.10;;
12306;SDS011;6216;51.146;7.008;2024-01-16T10:51:04;6.25;;;3.03;;
12306;SDS011;6216;51.146;7.008;2024-01-16T10:53:34;9.50;;;2.92;;
12306;SDS011;6216;51.146;7.008;2024-01-16T10:56:04;12.02;;;2.75;;
12306;SDS011;6216;51.146;7.008;2024-01-16T10:58:40;7.95;;;2.38;;
12306;SDS011;6216;51.146;7.008;2024-01-16T11:01:10;6.38;;;2.75;;
12306;SDS011;6216;51.146;7.008;2024-01-16T11:03:40;4.53;;;2.40;;
12306;SDS011;6216;51.146;7.008;2024-01-16T11:06:14;6.53;;;2.85;;
12306;SDS011;6216;51.146;7.008;2024-01-16T11:08:45;6.22;;;2.78;;
12306;SDS011;6216;51.146;7.008;2024-01-16T11:11:14;8.57;;;3.08;;
12306;SDS011;6216;51.146;7.008;2024-01-16T11:13:45;7.10;;;3.05;;
12306;SDS011;6216;51.146;7.008;2024-01-16T11:16:13;10.15;;;2.80;;
12306;SDS011;6216;51.146;7.008;2024-01-16T11:18:42;5.57;;;2.65;;
12306;SDS011;6216;51.146;7.008;2024-01-16T11:21:10;6.15;;;2.53;;
12306;SDS011;6216;51.146;7.008;2024-01-16T11:23:44;5.93;;;2.88;;
12306;SDS011;6216;51.146;7.008;2024-01-16T11:26:26;6.72;;;2.65;;
12306;SDS011;6216;51.146;7.008;2024-01-16T11:28:58;7.72;;;2.80;;
12306;SDS011;6216;51.146;7.008;2024-01-16T11:31:30;9.05;;;2.80;;
12306;SDS011;6216;51.146;7.008;2024-01-16T11:33:59;5.55;;;2.60;;
12306;SDS011;6216;51.146;7.008;2024-01-16T11:39:21;6.22;;;2.70;;
12306;SDS011;6216;51.146;7.008;2024-01-16T11:41:54;5.22;;;2.42;;
12306;SDS011;6216;51.146;7.008;2024-01-16T11:47:17;6.00;;;2.78;;
12306;SDS011;6216;51.146;7.008;2024-01-16T11:49:46;6.55;;;2.85;;
12306;SDS011;6216;51.146;7.008;2024-01-16T11:52:14;7.93;;;2.80;;
12306;SDS011;6216;51.146;7.008;2024-01-16T11:55:07;8.88;;;2.63;;
12306;SDS011;6216;51.146;7.008;2024-01-16T11:57:56;8.77;;;3.13;;
12306;SDS011;6216;51.146;7.008;2024-01-16T12:00:54;7.07;;;2.55;;
12306;SDS011;6216;51.146;7.008;2024-01-16T12:03:23;4.47;;;2.42;;
12306;SDS011;6216;51.146;7.008;2024-01-16T12:06:00;7.03;;;3.00;;
12306;SDS011;6216;51.146;7.008;2024-01-16T12:08:32;8.07;;;2.83;;
12306;SDS011;6216;51.146;7.008;2024-01-16T12:11:01;3.35;;;2.25;;
12306;SDS011;6216;51.146;7.008;2024-01-16T12:13:30;5.50;;;2.78;;
12306;SDS011;6216;51.146;7.008;2024-01-16T12:16:00;16.23;;;4.30;;
12306;SDS011;6216;51.146;7.008;2024-01-16T12:18:30;25.85;;;7.32;;
12306;SDS011;6216;51.146;7.008;2024-01-16T12:21:09;7.15;;;3.42;;
12306;SDS011;6216;51.146;7.008;2024-01-16T12:23:39;5.45;;;2.80;;
12306;SDS011;6216;51.146;7.008;2024-01-16T12:26:21;6.73;;;3.30;;
12306;SDS011;6216;51.146;7.008;2024-01-16T12:28:50;9.77;;;2.73;;
12306;SDS011;6216;51.146;7.008;2024-01-16T12:31:25;9.73;;;2.57;;
12306;SDS011;6216;51.146;7.008;2024-01-16T12:33:55;6.73;;;2.10;;
12306;SDS011;6216;51.146;7.008;2024-01-16T12:36:32;7.38;;;2.72;;
12306;SDS011;6216;51.146;7.008;2024-01-16T12:38:59;6.43;;;2.55;;
12306;SDS011;6216;51.146;7.008;2024-01-16T12:41:28;7.90;;;2.30;;
12306;SDS011;6216;51.146;7.008;2024-01-16T12:44:08;5.20;;;2.55;;
12306;SDS011;6216;51.146;7.008;2024-01-16T12:46:44;4.13;;;2.37;;
12306;SDS011;6216;51.146;7.008;2024-01-16T12:49:20;9.17;;;2.93;;
12306;SDS011;6216;51.146;7.008;2024-01-16T12:51:49;7.63;;;2.63;;
12306;SDS011;6216;51.146;7.008;2024-01-16T12:54:18;6.70;;;2.57;;
12306;SDS011;6216;51.146;7.008;2024-01-16T12:56:57;8.40;;;3.27;;
12306;SDS011;6216;51.146;7.008;2024-01-16T12:59:27;8.40;;;2.53;;
12306;SDS011;6216;51.146;7.008;2024-01-16T13:01:57;5.60;;;2.37;;
12306;SDS011;6216;51.146;7.008;2024-01-16T13:04:26;7.97;;;2.70;;
12306;SDS011;6216;51.146;7.008;2024-01-16T13:07:00;6.40;;;3.07;;
12306;SDS011;6216;51.146;7.008;2024-01-16T13:09:29;6.63;;;2.77;;
12306;SDS011;6216;51.146;7.008;2024-01-16T13:11:58;7.15;;;2.45;;
12306;SDS011;6216;51.146;7.008;2024-01-16T13:14:26;6.00;;;2.70;;
12306;SDS011;6216;51.146;7.008;2024-01-16T13:16:54;6.45;;;2.92;;
12306;SDS011;6216;51.146;7.008;2024-01-16T13:19:24;6.82;;;2.50;;
12306;SDS011;6216;51.146;7.008;2024-01-16T13:21:52;11.57;;;3.15;;
12306;SDS011;6216;51.146;7.008;2024-01-16T13:24:20;5.33;;;3.03;;
12306;SDS011;6216;51.146;7.008;2024-01-16T13:26:50;7.73;;;3.23;;
12306;SDS011;6216;51.146;7.008;2024-01-16T13:29:18;8.57;;;2.90;;
12306;SDS011;6216;51.146;7.008;2024-01-16T13:31:47;7.77;;;2.63;;
12306;SDS011;6216;51.146;7.008;2024-01-16T13:34:15;6.88;;;2.78;;
12306;SDS011;6216;51.146;7.008;2024-01-16T13:36:46;5.68;;;2.85;;
12306;SDS011;6216;51.146;7.008;2024-01-16T13:39:35;7.10;;;3.20;;
12306;SDS011;6216;51.146;7.008;2024-01-16T13:42:05;10.47;;;3.60;;
12306;SDS011;6216;51.146;7.008;2024-01-16T13:44:33;8.13;;;2.87;;
12306;SDS011;6216;51.146;7.008;2024-01-16T13:47:01;7.67;;;2.83;;
12306;SDS011;6216;51.146;7.008;2024-01-16T13:49:37;5.87;;;2.57;;
12306;SDS011;6216;51.146;7.008;2024-01-16T13:52:08;5.73;;;2.93;;
12306;SDS011;6216;51.146;7.008;2024-01-16T13:54:36;6.13;;;2.60;;
12306;SDS011;6216;51.146;7.008;2024-01-16T13:57:06;4.60;;;3.00;;
12306;SDS011;6216;51.146;7.008;2024-01-16T13:59:37;5.85;;;2.65;;
12306;SDS011;6216;51.146;7.008;2024-01-16T14:02:05;8.73;;;3.33;;
12306;SDS011;6216;51.146;7.008;2024-01-16T14:04:34;11.18;;;3.47;;
12306;SDS011;6216;51.146;7.008;2024-01-16T14:07:02;9.50;;;3.20;;
12306;SDS011;6216;51.146;7.008;2024-01-16T14:09:40;7.07;;;3.38;;
12306;SDS011;6216;51.146;7.008;2024-01-16T14:12:11;6.87;;;2.80;;
12306;SDS011;6216;51.146;7.008;2024-01-16T14:14:41;5.40;;;2.80;;
12306;SDS011;6216;51.146;7.008;2024-01-16T14:17:09;5.83;;;2.60;;
12306;SDS011;6216;51.146;7.008;2024-01-16T14:19:37;5.90;;;2.90;;
12306;SDS011;6216;51.146;7.008;2024-01-16T14:22:05;6.87;;;3.00;;
12306;SDS011;6216;51.146;7.008;2024-01-16T14:24:33;9.50;;;3.37;;
12306;SDS011;6216;51.146;7.008;2024-01-16T14:27:05;8.63;;;3.20;;
12306;SDS011;6216;51.146;7.008;2024-01-16T14:29:33;6.80;;;2.77;;
12306;SDS011;6216;51.146;7.008;2024-01-16T14:32:04;9.40;;;3.80;;
12306;SDS011;6216;51.146;7.008;2024-01-16T14:34:32;6.47;;;3.03;;
12306;SDS011;6216;51.146;7.008;2024-01-16T14:37:00;5.67;;;3.17;;
12306;SDS011;6216;51.146;7.008;2024-01-16T14:39:28;6.80;;;3.67;;
12306;SDS011;6216;51.146;7.008;2024-01-16T14:41:57;4.67;;;2.67;;
12306;SDS011;6216;51.146;7.008;2024-01-16T14:44:27;7.60;;;3.10;;
12306;SDS011;6216;51.146;7.008;2024-01-16T14:46:56;5.83;;;3.13;;
12306;SDS011;6216;51.146;7.008;2024-01-16T14:49:24;6.83;;;3.07;;
12306;SDS011;6216;51.146;7.008;2024-01-16T14:51:57;4.27;;;2.67;;
12306;SDS011;6216;51.146;7.008;2024-01-16T14:54:27;5.87;;;2.77;;
12306;SDS011;6216;51.146;7.008;2024-01-16T14:56:55;4.57;;;2.47;;
12306;SDS011;6216;51.146;7.008;2024-01-16T14:59:23;4.87;;;2.90;;
12306;SDS011;6216;51.146;7.008;2024-01-16T15:01:52;8.00;;;2.80;;
12306;SDS011;6216;51.146;7.008;2024-01-16T15:04:20;7.23;;;3.23;;
12306;SDS011;6216;51.146;7.008;2024-01-16T15:06:48;4.33;;;2.47;;
12306;SDS011;6216;51.146;7.008;2024-01-16T15:09:19;7.77;;;3.40;;
12306;SDS011;6216;51.146;7.008;2024-01-16T15:11:47;5.80;;;2.77;;
12306;SDS011;6216;51.146;7.008;2024-01-16T15:14:15;4.13;;;2.40;;